sensor_id;sensor_type;location;lat;lon;timestamp;P1;durP1;ratioP1;P2;durP2;ratioP2
64767;SDS011;51202;48.130;11.702;2022-07-10T00:01:15;0.43;;;0.43;;
64767;SDS011;51202;48.130;11.702;2022-07-10T00:03:44;0.50;;;0.50;;
64767;SDS011;51202;48.130;11.702;2022-07-10T00:06:13;0.50;;;0.50;;
64767;SDS011;51202;48.130;11.702;2022-07-10T00:08:43;0.50;;;0.50;;
64767;SDS011;51202;48.130;11.702;2022-07-10T00:11:13;0.50;;;0.50;;
64767;SDS011;51202;48.130;11.702;2022-07-10T00:13:41;0.50;;;0.50;;
64767;SDS011;51202;48.130;11.702;2022-07-10T00:16:10;0.50;;;0.50;;
64767;SDS011;51202;48.130;11.702;2022-07-10T00:18:39;0.50;;;0.50;;
64767;SDS011;51202;48.130;11.702;2022-07-10T00:21:08;0.50;;;0.50;;
64767;SDS011;51202;48.130;11.702;2022-07-10T00:23:38;0.50;;;0.50;;
64767;SDS011;51202;48.130;11.702;2022-07-10T00:26:08;0.50;;;0.50;;
64767;SDS011;51202;48.130;11.702;2022-07-10T00:28:37;0.50;;;0.50;;
64767;SDS011;51202;48.130;11.702;2022-07-10T00:31:07;0.52;;;0.52;;
64767;SDS011;51202;48.130;11.702;2022-07-10T00:36:07;0.50;;;0.50;;
64767;SDS011;51202;48.130;11.702;2022-07-10T00:38:36;0.57;;;0.57;;
64767;SDS011;51202;48.130;11.702;2022-07-10T00:41:08;0.50;;;0.50;;
64767;SDS011;51202;48.130;11.702;2022-07-10T00:43:50;0.60;;;0.60;;
64767;SDS011;51202;48.130;11.702;2022-07-10T00:46:20;0.50;;;0.50;;
64767;SDS011;51202;48.130;11.702;2022-07-10T00:48:49;0.50;;;0.50;;
64767;SDS011;51202;48.130;11.702;2022-07-10T00:51:18;0.50;;;0.50;;
64767;SDS011;51202;48.130;11.702;2022-07-10T00:53:49;0.50;;;0.50;;
64767;SDS011;51202;48.130;11.702;2022-07-10T00:56:21;0.50;;;0.50;;
64767;SDS011;51202;48.130;11.702;2022-07-10T00:58:51;0.50;;;0.50;;
64767;SDS011;51202;48.130;11.702;2022-07-10T01:01:22;0.50;;;0.50;;
64767;SDS011;51202;48.130;11.702;2022-07-10T01:03:51;0.50;;;0.50;;
64767;SDS011;51202;48.130;11.702;2022-07-10T01:06:20;0.52;;;0.52;;
64767;SDS011;51202;48.130;11.702;2022-07-10T01:08:49;0.50;;;0.50;;
64767;SDS011;51202;48.130;11.702;2022-07-10T01:11:18;0.50;;;0.50;;
64767;SDS011;51202;48.130;11.702;2022-07-10T01:13:48;0.60;;;0.60;;
64767;SDS011;51202;48.130;11.702;2022-07-10T01:16:17;0.50;;;0.50;;
64767;SDS011;51202;48.130;11.702;2022-07-10T01:18:45;0.60;;;0.60;;
64767;SDS011;51202;48.130;11.702;2022-07-10T01:21:25;0.50;;;0.50;;
64767;SDS011;51202;48.130;11.702;2022-07-10T01:23:55;0.50;;;0.50;;
64767;SDS011;51202;48.130;11.702;2022-07-10T01:26:24;0.60;;;0.60;;
64767;SDS011;51202;48.130;11.702;2022-07-10T01:28:53;0.50;;;0.50;;
64767;SDS011;51202;48.130;11.702;2022-07-10T01:31:24;0.60;;;0.60;;
64767;SDS011;51202;48.130;11.702;2022-07-10T01:33:54;0.50;;;0.50;;
64767;SDS011;51202;48.130;11.702;2022-07-10T01:36:25;0.60;;;0.60;;
64767;SDS011;51202;48.130;11.702;2022-07-10T01:38:57;0.50;;;0.50;;
64767;SDS011;51202;48.130;11.702;2022-07-10T01:41:26;0.50;;;0.50;;
64767;SDS011;51202;48.130;11.702;2022-07-10T01:43:55;0.60;;;0.60;;
64767;SDS011;51202;48.130;11.702;2022-07-10T01:46:24;0.57;;;0.57;;
64767;SDS011;51202;48.130;11.702;2022-07-10T01:48:54;0.60;;;0.60;;
64767;SDS011;51202;48.130;11.702;2022-07-10T01:51:22;0.50;;;0.50;;
64767;SDS011;51202;48.130;11.702;2022-07-10T01:53:53;0.50;;;0.50;;
64767;SDS011;51202;48.130;11.702;2022-07-10T01:56:22;0.55;;;0.55;;
64767;SDS011;51202;48.130;11.702;2022-07-10T01:58:51;0.50;;;0.50;;
64767;SDS011;51202;48.130;11.702;2022-07-10T02:01:20;0.60;;;0.60;;
64767;SDS011;51202;48.130;11.702;2022-07-10T02:03:49;0.57;;;0.57;;
64767;SDS011;51202;48.130;11.702;2022-07-10T02:06:35;0.60;;;0.60;;
64767;SDS011;51202;48.130;11.702;2022-07-10T02:09:05;0.60;;;0.60;;
64767;SDS011;51202;48.130;11.702;2022-07-10T02:11:34;0.60;;;0.60;;
64767;SDS011;51202;48.130;11.702;2022-07-10T02:14:03;0.60;;;0.60;;
64767;SDS011;51202;48.130;11.702;2022-07-10T02:16:31;0.70;;;0.70;;
64767;SDS011;51202;48.130;11.702;2022-07-10T02:19:00;0.63;;;0.63;;
64767;SDS011;51202;48.130;11.702;2022-07-10T02:21:29;0.60;;;0.60;;
64767;SDS011;51202;48.130;11.702;2022-07-10T02:23:58;0.60;;;0.60;;
64767;SDS011;51202;48.130;11.702;2022-07-10T02:26:28;0.60;;;0.60;;
64767;SDS011;51202;48.130;11.702;2022-07-10T02:28:57;0.60;;;0.60;;
64767;SDS011;51202;48.130;11.702;2022-07-10T02:31:26;0.60;;;0.60;;
64767;SDS011;51202;48.130;11.702;2022-07-10T02:33:55;0.50;;;0.50;;
64767;SDS011;51202;48.130;11.702;2022-07-10T02:36:23;0.60;;;0.60;;
64767;SDS011;51202;48.130;11.702;2022-07-10T02:38:52;0.60;;;0.60;;
64767;SDS011;51202;48.130;11.702;2022-07-10T02:41:21;0.50;;;0.50;;
64767;SDS011;51202;48.130;11.702;2022-07-10T02:43:51;0.60;;;0.60;;
64767;SDS011;51202;48.130;11.702;2022-07-10T02:46:20;0.50;;;0.50;;
64767;SDS011;51202;48.130;11.702;2022-07-10T02:48:49;0.50;;;0.50;;
64767;SDS011;51202;48.130;11.702;2022-07-10T02:51:17;0.50;;;0.50;;
64767;SDS011;51202;48.130;11.702;2022-07-10T02:53:46;0.50;;;0.50;;
64767;SDS011;51202;48.130;11.702;2022-07-10T02:56:15;0.50;;;0.50;;
64767;SDS011;51202;48.130;11.702;2022-07-10T02:58:44;0.60;;;0.60;;
64767;SDS011;51202;48.130;11.702;2022-07-10T03:01:14;0.52;;;0.52;;
64767;SDS011;51202;48.130;11.702;2022-07-10T03:03:43;0.50;;;0.50;;
64767;SDS011;51202;48.130;11.702;2022-07-10T03:06:12;0.55;;;0.55;;
64767;SDS011;51202;48.130;11.702;2022-07-10T03:08:40;0.50;;;0.50;;
64767;SDS011;51202;48.130;11.702;2022-07-10T03:11:09;0.50;;;0.50;;
64767;SDS011;51202;48.130;11.702;2022-07-10T03:13:38;0.50;;;0.50;;
64767;SDS011;51202;48.130;11.702;2022-07-10T03:16:07;0.50;;;0.50;;
64767;SDS011;51202;48.130;11.702;2022-07-10T03:18:38;0.50;;;0.50;;
64767;SDS011;51202;48.130;11.702;2022-07-10T03:21:07;0.60;;;0.60;;
64767;SDS011;51202;48.130;11.702;2022-07-10T03:23:36;0.55;;;0.55;;
64767;SDS011;51202;48.130;11.702;2022-07-10T03:26:07;0.50;;;0.50;;
64767;SDS011;51202;48.130;11.702;2022-07-10T03:28:36;0.60;;;0.60;;
64767;SDS011;51202;48.130;11.702;2022-07-10T03:31:05;0.50;;;0.50;;
64767;SDS011;51202;48.130;11.702;2022-07-10T03:33:34;0.60;;;0.60;;
64767;SDS011;51202;48.130;11.702;2022-07-10T03:36:04;0.50;;;0.50;;
64767;SDS011;51202;48.130;11.702;2022-07-10T03:38:34;0.60;;;0.60;;
64767;SDS011;51202;48.130;11.702;2022-07-10T03:41:03;0.60;;;0.60;;
64767;SDS011;51202;48.130;11.702;2022-07-10T03:43:32;0.60;;;0.60;;
64767;SDS011;51202;48.130;11.702;2022-07-10T03:46:00;0.60;;;0.60;;
64767;SDS011;51202;48.130;11.702;2022-07-10T03:48:29;0.55;;;0.55;;
64767;SDS011;51202;48.130;11.702;2022-07-10T03:50:59;0.60;;;0.60;;
64767;SDS011;51202;48.130;11.702;2022-07-10T03:53:30;0.60;;;0.60;;
64767;SDS011;51202;48.130;11.702;2022-07-10T03:55:59;0.52;;;0.52;;
64767;SDS011;51202;48.130;11.702;2022-07-10T03:58:28;0.60;;;0.60;;
64767;SDS011;51202;48.130;11.702;2022-07-10T04:00:56;0.60;;;0.60;;
64767;SDS011;51202;48.130;11.702;2022-07-10T04:03:25;0.60;;;0.60;;
64767;SDS011;51202;48.130;11.702;2022-07-10T04:05:54;0.50;;;0.50;;
64767;SDS011;51202;48.130;11.702;2022-07-10T04:08:22;0.60;;;0.60;;
64767;SDS011;51202;48.130;11.702;2022-07-10T04:10:52;0.50;;;0.50;;
64767;SDS011;51202;48.130;11.702;2022-07-10T04:13:21;0.60;;;0.60;;
64767;SDS011;51202;48.130;11.702;2022-07-10T04:15:50;0.60;;;0.60;;
64767;SDS011;51202;48.130;11.702;2022-07-10T04:18:19;0.60;;;0.60;;
64767;SDS011;51202;48.130;11.702;2022-07-10T04:20:47;0.60;;;0.60;;
64767;SDS011;51202;48.130;11.702;2022-07-10T04:23:16;0.50;;;0.50;;
64767;SDS011;51202;48.130;11.702;2022-07-10T04:25:45;0.50;;;0.50;;
64767;SDS011;51202;48.130;11.702;2022-07-10T04:28:15;0.60;;;0.60;;
64767;SDS011;51202;48.130;11.702;2022-07-10T04:30:43;0.57;;;0.57;;
64767;SDS011;51202;48.130;11.702;2022-07-10T04:33:12;0.50;;;0.50;;
64767;SDS011;51202;48.130;11.702;2022-07-10T04:35:41;0.50;;;0.50;;
64767;SDS011;51202;48.130;11.702;2022-07-10T04:38:10;0.60;;;0.60;;
64767;SDS011;51202;48.130;11.702;2022-07-10T04:40:39;0.60;;;0.60;;
64767;SDS011;51202;48.130;11.702;2022-07-10T04:43:08;0.60;;;0.60;;
64767;SDS011;51202;48.130;11.702;2022-07-10T04:45:38;0.50;;;0.50;;
64767;SDS011;51202;48.130;11.702;2022-07-10T04:48:07;0.60;;;0.60;;
64767;SDS011;51202;48.130;11.702;2022-07-10T04:50:35;0.50;;;0.50;;
64767;SDS011;51202;48.130;11.702;2022-07-10T04:53:04;0.60;;;0.60;;
64767;SDS011;51202;48.130;11.702;2022-07-10T04:55:33;0.60;;;0.60;;
64767;SDS011;51202;48.130;11.702;2022-07-10T04:58:02;0.60;;;0.60;;
64767;SDS011;51202;48.130;11.702;2022-07-10T05:00:30;0.50;;;0.50;;
64767;SDS011;51202;48.130;11.702;2022-07-10T05:03:01;0.60;;;0.60;;
64767;SDS011;51202;48.130;11.702;2022-07-10T05:05:30;0.60;;;0.60;;
64767;SDS011;51202;48.130;11.702;2022-07-10T05:07:58;0.50;;;0.50;;
64767;SDS011;51202;48.130;11.702;2022-07-10T05:10:27;0.50;;;0.50;;
64767;SDS011;51202;48.130;11.702;2022-07-10T05:12:56;0.55;;;0.55;;
64767;SDS011;51202;48.130;11.702;2022-07-10T05:15:25;0.60;;;0.60;;
64767;SDS011;51202;48.130;11.702;2022-07-10T05:17:54;0.50;;;0.50;;
64767;SDS011;51202;48.130;11.702;2022-07-10T05:20:24;0.60;;;0.60;;
64767;SDS011;51202;48.130;11.702;2022-07-10T05:22:52;0.50;;;0.50;;
64767;SDS011;51202;48.130;11.702;2022-07-10T05:25:21;0.50;;;0.50;;
64767;SDS011;51202;48.130;11.702;2022-07-10T05:27:54;0.50;;;0.50;;
64767;SDS011;51202;48.130;11.702;2022-07-10T05:30:22;0.50;;;0.50;;
64767;SDS011;51202;48.130;11.702;2022-07-10T05:32:51;0.52;;;0.52;;
64767;SDS011;51202;48.130;11.702;2022-07-10T05:35:20;0.60;;;0.60;;
64767;SDS011;51202;48.130;11.702;2022-07-10T05:37:50;0.55;;;0.55;;
64767;SDS011;51202;48.130;11.702;2022-07-10T05:40:19;0.50;;;0.50;;
64767;SDS011;51202;48.130;11.702;2022-07-10T05:42:48;0.60;;;0.60;;
64767;SDS011;51202;48.130;11.702;2022-07-10T05:45:17;0.50;;;0.50;;
64767;SDS011;51202;48.130;11.702;2022-07-10T05:47:46;0.55;;;0.55;;
64767;SDS011;51202;48.130;11.702;2022-07-10T05:50:15;0.60;;;0.60;;
64767;SDS011;51202;48.130;11.702;2022-07-10T05:52:43;0.60;;;0.60;;
64767;SDS011;51202;48.130;11.702;2022-07-10T05:55:14;0.60;;;0.60;;
64767;SDS011;51202;48.130;11.702;2022-07-10T05:57:42;0.60;;;0.60;;
64767;SDS011;51202;48.130;11.702;2022-07-10T06:00:12;0.60;;;0.60;;
64767;SDS011;51202;48.130;11.702;2022-07-10T06:02:41;0.50;;;0.50;;
64767;SDS011;51202;48.130;11.702;2022-07-10T06:05:10;0.50;;;0.50;;
64767;SDS011;51202;48.130;11.702;2022-07-10T06:07:38;0.60;;;0.60;;
64767;SDS011;51202;48.130;11.702;2022-07-10T06:10:07;0.60;;;0.60;;
64767;SDS011;51202;48.130;11.702;2022-07-10T06:12:38;0.60;;;0.60;;
64767;SDS011;51202;48.130;11.702;2022-07-10T06:15:07;0.60;;;0.60;;
64767;SDS011;51202;48.130;11.702;2022-07-10T06:17:44;0.60;;;0.60;;
64767;SDS011;51202;48.130;11.702;2022-07-10T06:20:13;0.60;;;0.60;;
64767;SDS011;51202;48.130;11.702;2022-07-10T06:22:42;0.60;;;0.60;;
64767;SDS011;51202;48.130;11.702;2022-07-10T06:25:12;0.60;;;0.60;;
64767;SDS011;51202;48.130;11.702;2022-07-10T06:27:42;0.60;;;0.60;;
64767;SDS011;51202;48.130;11.702;2022-07-10T06:30:11;0.57;;;0.57;;
64767;SDS011;51202;48.130;11.702;2022-07-10T06:32:40;0.60;;;0.60;;
64767;SDS011;51202;48.130;11.702;2022-07-10T06:35:09;0.60;;;0.60;;
64767;SDS011;51202;48.130;11.702;2022-07-10T06:37:38;0.60;;;0.60;;
64767;SDS011;51202;48.130;11.702;2022-07-10T06:40:09;0.60;;;0.60;;
64767;SDS011;51202;48.130;11.702;2022-07-10T06:42:39;0.70;;;0.70;;
64767;SDS011;51202;48.130;11.702;2022-07-10T06:45:11;0.60;;;0.60;;
64767;SDS011;51202;48.130;11.702;2022-07-10T06:47:40;0.57;;;0.57;;
64767;SDS011;51202;48.130;11.702;2022-07-10T06:50:25;0.60;;;0.60;;
64767;SDS011;51202;48.130;11.702;2022-07-10T06:52:54;0.70;;;0.70;;
64767;SDS011;51202;48.130;11.702;2022-07-10T06:55:23;0.50;;;0.50;;
64767;SDS011;51202;48.130;11.702;2022-07-10T06:57:54;0.50;;;0.50;;
64767;SDS011;51202;48.130;11.702;2022-07-10T07:00:24;0.50;;;0.50;;
64767;SDS011;51202;48.130;11.702;2022-07-10T07:02:53;0.50;;;0.50;;
64767;SDS011;51202;48.130;11.702;2022-07-10T07:05:22;0.60;;;0.60;;
64767;SDS011;51202;48.130;11.702;2022-07-10T07:07:52;0.60;;;0.60;;
64767;SDS011;51202;48.130;11.702;2022-07-10T07:10:20;0.60;;;0.60;;
64767;SDS011;51202;48.130;11.702;2022-07-10T07:12:49;0.50;;;0.50;;
64767;SDS011;51202;48.130;11.702;2022-07-10T07:15:19;0.60;;;0.60;;
64767;SDS011;51202;48.130;11.702;2022-07-10T07:17:51;0.60;;;0.60;;
64767;SDS011;51202;48.130;11.702;2022-07-10T07:20:35;0.50;;;0.50;;
64767;SDS011;51202;48.130;11.702;2022-07-10T07:23:21;0.52;;;0.52;;
64767;SDS011;51202;48.130;11.702;2022-07-10T07:25:51;0.60;;;0.60;;
64767;SDS011;51202;48.130;11.702;2022-07-10T07:28:20;0.60;;;0.60;;
64767;SDS011;51202;48.130;11.702;2022-07-10T07:30:50;0.60;;;0.60;;
64767;SDS011;51202;48.130;11.702;2022-07-10T07:33:19;0.60;;;0.60;;
64767;SDS011;51202;48.130;11.702;2022-07-10T07:35:48;0.50;;;0.50;;
64767;SDS011;51202;48.130;11.702;2022-07-10T07:38:17;0.57;;;0.57;;
64767;SDS011;51202;48.130;11.702;2022-07-10T07:40:46;0.50;;;0.50;;
64767;SDS011;51202;48.130;11.702;2022-07-10T07:43:15;0.60;;;0.60;;
64767;SDS011;51202;48.130;11.702;2022-07-10T07:45:44;0.63;;;0.63;;
64767;SDS011;51202;48.130;11.702;2022-07-10T07:48:14;0.60;;;0.60;;
64767;SDS011;51202;48.130;11.702;2022-07-10T07:50:43;0.60;;;0.60;;
64767;SDS011;51202;48.130;11.702;2022-07-10T07:53:11;0.60;;;0.60;;
64767;SDS011;51202;48.130;11.702;2022-07-10T07:55:40;0.60;;;0.60;;
64767;SDS011;51202;48.130;11.702;2022-07-10T07:58:09;0.60;;;0.60;;
64767;SDS011;51202;48.130;11.702;2022-07-10T08:00:38;0.70;;;0.70;;
64767;SDS011;51202;48.130;11.702;2022-07-10T08:03:06;0.63;;;0.63;;
64767;SDS011;51202;48.130;11.702;2022-07-10T08:05:37;0.70;;;0.70;;
64767;SDS011;51202;48.130;11.702;2022-07-10T08:08:06;0.60;;;0.60;;
64767;SDS011;51202;48.130;11.702;2022-07-10T08:10:37;0.50;;;0.50;;
64767;SDS011;51202;48.130;11.702;2022-07-10T08:13:11;0.50;;;0.50;;
64767;SDS011;51202;48.130;11.702;2022-07-10T08:15:40;0.50;;;0.50;;
64767;SDS011;51202;48.130;11.702;2022-07-10T08:18:09;0.50;;;0.50;;
64767;SDS011;51202;48.130;11.702;2022-07-10T08:20:39;0.60;;;0.60;;
64767;SDS011;51202;48.130;11.702;2022-07-10T08:23:08;0.50;;;0.50;;
64767;SDS011;51202;48.130;11.702;2022-07-10T08:25:37;0.50;;;0.50;;
64767;SDS011;51202;48.130;11.702;2022-07-10T08:28:06;0.60;;;0.60;;
64767;SDS011;51202;48.130;11.702;2022-07-10T08:30:37;0.60;;;0.60;;
64767;SDS011;51202;48.130;11.702;2022-07-10T08:33:07;0.60;;;0.60;;
64767;SDS011;51202;48.130;11.702;2022-07-10T08:35:36;0.60;;;0.60;;
64767;SDS011;51202;48.130;11.702;2022-07-10T08:38:07;0.50;;;0.50;;
64767;SDS011;51202;48.130;11.702;2022-07-10T08:40:36;0.60;;;0.60;;
64767;SDS011;51202;48.130;11.702;2022-07-10T08:43:05;0.50;;;0.50;;
64767;SDS011;51202;48.130;11.702;2022-07-10T08:45:34;0.50;;;0.50;;
64767;SDS011;51202;48.130;11.702;2022-07-10T08:48:03;0.60;;;0.60;;
64767;SDS011;51202;48.130;11.702;2022-07-10T08:50:37;0.60;;;0.60;;
64767;SDS011;51202;48.130;11.702;2022-07-10T08:53:15;0.50;;;0.50;;
64767;SDS011;51202;48.130;11.702;2022-07-10T08:55:50;0.50;;;0.50;;
64767;SDS011;51202;48.130;11.702;2022-07-10T08:58:19;0.50;;;0.50;;
64767;SDS011;51202;48.130;11.702;2022-07-10T09:00:49;0.50;;;0.50;;
64767;SDS011;51202;48.130;11.702;2022-07-10T09:03:18;0.50;;;0.50;;
64767;SDS011;51202;48.130;11.702;2022-07-10T09:05:47;0.60;;;0.60;;
64767;SDS011;51202;48.130;11.702;2022-07-10T09:10:51;0.50;;;0.50;;
64767;SDS011;51202;48.130;11.702;2022-07-10T09:13:20;0.50;;;0.50;;
64767;SDS011;51202;48.130;11.702;2022-07-10T09:15:51;0.50;;;0.50;;
64767;SDS011;51202;48.130;11.702;2022-07-10T09:18:24;0.50;;;0.50;;
64767;SDS011;51202;48.130;11.702;2022-07-10T09:20:53;0.77;;;0.77;;
64767;SDS011;51202;48.130;11.702;2022-07-10T09:23:23;0.90;;;0.90;;
64767;SDS011;51202;48.130;11.702;2022-07-10T09:25:52;0.70;;;0.70;;
64767;SDS011;51202;48.130;11.702;2022-07-10T09:28:22;0.60;;;0.60;;
64767;SDS011;51202;48.130;11.702;2022-07-10T09:30:51;0.30;;;0.30;;
64767;SDS011;51202;48.130;11.702;2022-07-10T09:33:21;0.30;;;0.30;;
64767;SDS011;51202;48.130;11.702;2022-07-10T09:35:57;0.30;;;0.30;;
64767;SDS011;51202;48.130;11.702;2022-07-10T09:38:50;0.20;;;0.20;;
64767;SDS011;51202;48.130;11.702;2022-07-10T09:43:54;0.40;;;0.40;;
64767;SDS011;51202;48.130;11.702;2022-07-10T09:46:24;0.20;;;0.20;;
64767;SDS011;51202;48.130;11.702;2022-07-10T09:49:00;0.20;;;0.20;;
64767;SDS011;51202;48.130;11.702;2022-07-10T09:51:34;0.30;;;0.30;;
64767;SDS011;51202;48.130;11.702;2022-07-10T09:54:11;0.20;;;0.20;;
64767;SDS011;51202;48.130;11.702;2022-07-10T09:56:41;0.20;;;0.20;;
64767;SDS011;51202;48.130;11.702;2022-07-10T09:59:11;0.20;;;0.20;;
64767;SDS011;51202;48.130;11.702;2022-07-10T10:01:42;0.20;;;0.20;;
64767;SDS011;51202;48.130;11.702;2022-07-10T10:04:14;0.30;;;0.30;;
64767;SDS011;51202;48.130;11.702;2022-07-10T10:06:44;0.20;;;0.20;;
64767;SDS011;51202;48.130;11.702;2022-07-10T10:09:18;0.20;;;0.20;;
64767;SDS011;51202;48.130;11.702;2022-07-10T10:11:52;0.30;;;0.30;;
64767;SDS011;51202;48.130;11.702;2022-07-10T10:14:25;0.22;;;0.22;;
64767;SDS011;51202;48.130;11.702;2022-07-10T10:16:55;0.38;;;0.38;;
64767;SDS011;51202;48.130;11.702;2022-07-10T10:19:26;0.30;;;0.30;;
64767;SDS011;51202;48.130;11.702;2022-07-10T10:22:15;0.30;;;0.30;;
64767;SDS011;51202;48.130;11.702;2022-07-10T10:24:48;0.30;;;0.30;;
64767;SDS011;51202;48.130;11.702;2022-07-10T10:27:17;0.40;;;0.40;;
64767;SDS011;51202;48.130;11.702;2022-07-10T10:29:49;0.40;;;0.40;;
64767;SDS011;51202;48.130;11.702;2022-07-10T10:32:19;0.30;;;0.30;;
64767;SDS011;51202;48.130;11.702;2022-07-10T10:34:49;0.40;;;0.40;;
64767;SDS011;51202;48.130;11.702;2022-07-10T10:37:34;0.30;;;0.30;;
64767;SDS011;51202;48.130;11.702;2022-07-10T10:43:14;0.30;;;0.30;;
64767;SDS011;51202;48.130;11.702;2022-07-10T10:45:44;0.30;;;0.30;;
64767;SDS011;51202;48.130;11.702;2022-07-10T10:48:14;0.30;;;0.30;;
64767;SDS011;51202;48.130;11.702;2022-07-10T10:51:04;0.30;;;0.28;;
64767;SDS011;51202;48.130;11.702;2022-07-10T10:53:33;0.40;;;0.40;;
64767;SDS011;51202;48.130;11.702;2022-07-10T10:58:52;0.30;;;0.30;;
64767;SDS011;51202;48.130;11.702;2022-07-10T11:01:25;0.30;;;0.30;;
64767;SDS011;51202;48.130;11.702;2022-07-10T11:04:14;0.30;;;0.30;;
64767;SDS011;51202;48.130;11.702;2022-07-10T11:06:45;0.20;;;0.20;;
64767;SDS011;51202;48.130;11.702;2022-07-10T11:09:24;0.30;;;0.30;;
64767;SDS011;51202;48.130;11.702;2022-07-10T11:11:58;0.30;;;0.30;;
64767;SDS011;51202;48.130;11.702;2022-07-10T11:14:28;0.25;;;0.25;;
64767;SDS011;51202;48.130;11.702;2022-07-10T11:16:58;0.30;;;0.30;;
64767;SDS011;51202;48.130;11.702;2022-07-10T11:19:28;0.30;;;0.30;;
64767;SDS011;51202;48.130;11.702;2022-07-10T11:22:09;0.20;;;0.20;;
64767;SDS011;51202;48.130;11.702;2022-07-10T11:24:48;0.22;;;0.22;;
64767;SDS011;51202;48.130;11.702;2022-07-10T11:27:34;0.30;;;0.30;;
64767;SDS011;51202;48.130;11.702;2022-07-10T11:30:17;0.40;;;0.40;;
64767;SDS011;51202;48.130;11.702;2022-07-10T11:32:46;0.20;;;0.20;;
64767;SDS011;51202;48.130;11.702;2022-07-10T11:35:16;0.30;;;0.30;;
64767;SDS011;51202;48.130;11.702;2022-07-10T11:37:49;0.30;;;0.30;;
64767;SDS011;51202;48.130;11.702;2022-07-10T11:40:19;0.30;;;0.30;;
64767;SDS011;51202;48.130;11.702;2022-07-10T11:42:50;0.30;;;0.30;;
64767;SDS011;51202;48.130;11.702;2022-07-10T11:45:26;0.40;;;0.40;;
64767;SDS011;51202;48.130;11.702;2022-07-10T11:47:56;0.30;;;0.30;;
64767;SDS011;51202;48.130;11.702;2022-07-10T11:50:25;0.50;;;0.50;;
64767;SDS011;51202;48.130;11.702;2022-07-10T11:52:55;0.20;;;0.20;;
64767;SDS011;51202;48.130;11.702;2022-07-10T11:55:26;0.20;;;0.20;;
64767;SDS011;51202;48.130;11.702;2022-07-10T11:57:58;0.20;;;0.20;;
64767;SDS011;51202;48.130;11.702;2022-07-10T12:00:27;0.40;;;0.40;;
64767;SDS011;51202;48.130;11.702;2022-07-10T12:02:57;0.30;;;0.30;;
64767;SDS011;51202;48.130;11.702;2022-07-10T12:05:45;0.25;;;0.25;;
64767;SDS011;51202;48.130;11.702;2022-07-10T12:08:15;0.30;;;0.30;;
64767;SDS011;51202;48.130;11.702;2022-07-10T12:10:44;0.20;;;0.20;;
64767;SDS011;51202;48.130;11.702;2022-07-10T12:13:14;0.20;;;0.20;;
64767;SDS011;51202;48.130;11.702;2022-07-10T12:15:44;0.20;;;0.20;;
64767;SDS011;51202;48.130;11.702;2022-07-10T12:18:17;0.20;;;0.20;;
64767;SDS011;51202;48.130;11.702;2022-07-10T12:20:48;0.20;;;0.20;;
64767;SDS011;51202;48.130;11.702;2022-07-10T12:23:19;0.20;;;0.20;;
64767;SDS011;51202;48.130;11.702;2022-07-10T12:25:50;0.20;;;0.20;;
64767;SDS011;51202;48.130;11.702;2022-07-10T12:28:20;0.20;;;0.20;;
64767;SDS011;51202;48.130;11.702;2022-07-10T12:30:49;0.28;;;0.28;;
64767;SDS011;51202;48.130;11.702;2022-07-10T12:33:18;0.20;;;0.20;;
64767;SDS011;51202;48.130;11.702;2022-07-10T12:35:49;0.40;;;0.40;;
64767;SDS011;51202;48.130;11.702;2022-07-10T12:40:49;0.30;;;0.30;;
64767;SDS011;51202;48.130;11.702;2022-07-10T12:43:26;0.30;;;0.30;;
64767;SDS011;51202;48.130;11.702;2022-07-10T12:46:12;0.30;;;0.30;;
64767;SDS011;51202;48.130;11.702;2022-07-10T12:49:00;0.30;;;0.30;;
64767;SDS011;51202;48.130;11.702;2022-07-10T12:51:31;0.32;;;0.32;;
64767;SDS011;51202;48.130;11.702;2022-07-10T12:54:30;0.30;;;0.30;;
64767;SDS011;51202;48.130;11.702;2022-07-10T12:56:59;0.32;;;0.32;;
64767;SDS011;51202;48.130;11.702;2022-07-10T12:59:32;0.40;;;0.40;;
64767;SDS011;51202;48.130;11.702;2022-07-10T13:02:16;0.30;;;0.30;;
64767;SDS011;51202;48.130;11.702;2022-07-10T13:04:52;0.30;;;0.30;;
64767;SDS011;51202;48.130;11.702;2022-07-10T13:07:28;0.40;;;0.40;;
64767;SDS011;51202;48.130;11.702;2022-07-10T13:09:59;0.40;;;0.40;;
64767;SDS011;51202;48.130;11.702;2022-07-10T13:12:30;0.40;;;0.40;;
64767;SDS011;51202;48.130;11.702;2022-07-10T13:15:01;0.40;;;0.40;;
64767;SDS011;51202;48.130;11.702;2022-07-10T13:17:30;0.40;;;0.40;;
64767;SDS011;51202;48.130;11.702;2022-07-10T13:19:59;0.40;;;0.40;;
64767;SDS011;51202;48.130;11.702;2022-07-10T13:22:27;0.30;;;0.30;;
64767;SDS011;51202;48.130;11.702;2022-07-10T13:24:56;0.40;;;0.40;;
64767;SDS011;51202;48.130;11.702;2022-07-10T13:27:25;0.40;;;0.40;;
64767;SDS011;51202;48.130;11.702;2022-07-10T13:29:54;0.40;;;0.40;;
64767;SDS011;51202;48.130;11.702;2022-07-10T13:32:24;0.40;;;0.40;;
64767;SDS011;51202;48.130;11.702;2022-07-10T13:34:56;0.20;;;0.20;;
64767;SDS011;51202;48.130;11.702;2022-07-10T13:37:25;0.20;;;0.20;;
64767;SDS011;51202;48.130;11.702;2022-07-10T13:39:54;0.30;;;0.30;;
64767;SDS011;51202;48.130;11.702;2022-07-10T13:42:22;0.50;;;0.50;;
64767;SDS011;51202;48.130;11.702;2022-07-10T13:44:52;0.45;;;0.40;;
64767;SDS011;51202;48.130;11.702;2022-07-10T13:49:52;0.30;;;0.30;;
64767;SDS011;51202;48.130;11.702;2022-07-10T13:52:21;0.20;;;0.20;;
64767;SDS011;51202;48.130;11.702;2022-07-10T13:54:50;0.30;;;0.30;;
64767;SDS011;51202;48.130;11.702;2022-07-10T13:57:19;0.28;;;0.28;;
64767;SDS011;51202;48.130;11.702;2022-07-10T13:59:47;0.40;;;0.40;;
64767;SDS011;51202;48.130;11.702;2022-07-10T14:02:16;0.20;;;0.20;;
64767;SDS011;51202;48.130;11.702;2022-07-10T14:04:45;0.40;;;0.40;;
64767;SDS011;51202;48.130;11.702;2022-07-10T14:07:15;0.40;;;0.40;;
64767;SDS011;51202;48.130;11.702;2022-07-10T14:12:12;0.38;;;0.38;;
64767;SDS011;51202;48.130;11.702;2022-07-10T14:14:41;0.30;;;0.30;;
64767;SDS011;51202;48.130;11.702;2022-07-10T14:17:10;0.30;;;0.30;;
64767;SDS011;51202;48.130;11.702;2022-07-10T14:19:39;0.20;;;0.20;;
64767;SDS011;51202;48.130;11.702;2022-07-10T14:22:08;0.25;;;0.25;;
64767;SDS011;51202;48.130;11.702;2022-07-10T14:24:39;0.30;;;0.30;;
64767;SDS011;51202;48.130;11.702;2022-07-10T14:27:08;0.30;;;0.30;;
64767;SDS011;51202;48.130;11.702;2022-07-10T14:29:39;0.30;;;0.30;;
64767;SDS011;51202;48.130;11.702;2022-07-10T14:34:36;0.30;;;0.30;;
64767;SDS011;51202;48.130;11.702;2022-07-10T14:37:05;0.30;;;0.30;;
64767;SDS011;51202;48.130;11.702;2022-07-10T14:39:36;0.30;;;0.30;;
64767;SDS011;51202;48.130;11.702;2022-07-10T14:42:09;0.30;;;0.30;;
64767;SDS011;51202;48.130;11.702;2022-07-10T14:44:39;0.30;;;0.30;;
64767;SDS011;51202;48.130;11.702;2022-07-10T14:47:07;0.30;;;0.30;;
64767;SDS011;51202;48.130;11.702;2022-07-10T14:49:37;0.30;;;0.30;;
64767;SDS011;51202;48.130;11.702;2022-07-10T14:52:07;0.30;;;0.30;;
64767;SDS011;51202;48.130;11.702;2022-07-10T14:54:36;0.30;;;0.30;;
64767;SDS011;51202;48.130;11.702;2022-07-10T14:57:04;0.30;;;0.30;;
64767;SDS011;51202;48.130;11.702;2022-07-10T14:59:35;0.30;;;0.30;;
64767;SDS011;51202;48.130;11.702;2022-07-10T15:02:11;0.30;;;0.30;;
64767;SDS011;51202;48.130;11.702;2022-07-10T15:04:40;0.30;;;0.30;;
64767;SDS011;51202;48.130;11.702;2022-07-10T15:07:08;0.30;;;0.30;;
64767;SDS011;51202;48.130;11.702;2022-07-10T15:09:38;0.30;;;0.30;;
64767;SDS011;51202;48.130;11.702;2022-07-10T15:12:07;0.30;;;0.30;;
64767;SDS011;51202;48.130;11.702;2022-07-10T15:14:38;0.20;;;0.20;;
64767;SDS011;51202;48.130;11.702;2022-07-10T15:17:07;0.30;;;0.30;;